Create Custom Reports and Graphics: Custom Report

Latest Observations

Map

15 Minute Data

Latest Observation

39 Stations

15 Minute Data | America/Los_Angeles
as of 4/14/21 10:07 PM PDT
Station Date Time Temp (°F) RH (%) Dew Pt (°F) Wind Dir (°) Wind Spd (mph) Wind Gust (mph) Solar Rad (W/m2) Latest Rain (In) Daily Rain (In) Daily Max Temp (°F) Daily Min Temp (°F) Daily Max Wind (mph) Daily ETo (in) Daily Leaf Wet Hrs (hrs)
Colony 1 4/14/21 2200 55.0   1.1 60   5 41.4   1.2 W | 273 1.1   2.3 2.5   3.4 0   0 0.00 0.00 73.6   2.0 42.3   4.2 13.2   2.9 0.182   0.027 -
Colony 2 4/14/21 2200 55.8   0.1 55   1 40.1   0.5 W | 266 2.7   1.4 5.5   2.6 0   0 0.00 0.00 74.8   1.6 43.4   1.2 17.8   1.0 0.181   0.025 -
5 Wells 4/14/21 2200 55.6   0.7 51   2 38.0   1.8 SSW | 204 0.6   1.4 1.7   1.4 0   0 0.00 0.00 73.1   2.7 42.3   1.1 17.8   5.7 0.179   0.030 -
Simmerhorn 4/14/21 2200 53.4   2.1 59   5 39.6   0.3 - - - - - - 72.8   1.9 42.4   1.4 - - -
Galt-East 4/14/21 2200 55.4   0.1 60   1 41.6   0.4 S | 190 1.5   0.3 2.4   1.0 0   0 0.00 0.00 72.2   3.0 42.5   1.9 14.4   2.4 0.163   0.023 -
Borden Hills 4/14/21 2200 55.3   2.8 68   11 45.0   2.0 ENE | 66 2.0   0.9 2.5   1.9 0   0 0.00 0.00 75.7   1.7 44.1   1.6 16.3   2.1 0.177   0.024 -
Sierra Loma-L27 4/14/21 2200 55.8   1.0 61   3 42.5   0.3 NE | 39 1.7   0.5 2.5   1.8 - 0.00 0.00 74.2   1.2 44.3   1.4 13.9   6.8 - -
Lockeford 4/14/21 2200 54.0   0.7 59   3 39.8   0.9 N | 0 0.0   2.3 0.0   3.8 1   0 0.00 0.00 71.8   2.3 43.3   3.6 17.5   0.3 0.163   0.026 0.0   2.3
Lone Oak-L28 4/14/21 2200 50.4   1.2 76   9 43.1   2.1 WSW | 244 0.8   0.6 4.3   0.3 - 0.00 0.00 72.6   1.6 41.4   1.2 13.5   5.1 - -
Kost Rd 4/14/21 2200 57.5   2.1 50   10 38.8   2.6 WSW | 256 5.6   1.6 9.7   2.3 0   0 0.00 0.00 73.9   2.5 45.0   3.6 21.3   1.2 0.173   0.018 -
Thornton 4/14/21 2200 57.7   1.6 46   6 36.9   1.5 W | 261 5.4   1.8 8.4   3.7 0   0 0.00 0.00 73.6   1.5 43.8   1.1 20.9   3.4 0.093   0.030 0.0   0.0
Lodi (LangeTwins) 4/14/21 2045 59.2   1.0 52   3 41.8   0.6 W | 274 5.0   0.7 9.1   2.3 0   0 0.00 0.00 75.0   0.0 45.5   3.5 19.8   0.3 0.174   0.017 0.0   0.0
Gilbeau Ranch 4/14/21 2200 53.7   1.7 61   6 40.5   1.0 SE | 133 0.8   0.2 2.0   0.3 0   0 0.00 0.00 73.3   1.8 42.8   2.4 14.5   2.1 0.169   0.021 -
Galt West 4/14/21 2200 57.4   2.0 49   10 38.2   2.7 WSW | 252 5.8   3.0 9.6   6.5 0   0 0.00 0.00 73.2   2.1 43.5   4.6 17.7   0.8 0.173   0.024 -
Valley Oak 4/14/21 2200 57.2   1.1 46   4 36.6   1.4 W | 267 3.4   2.2 6.6   4.8 0   0 0.00 0.00 73.7   1.1 43.3   1.0 16.1   0.8 0.173   0.022 -
Guard Rd (Lodi WSW) 4/14/21 2200 54.7   3.0 59   7 40.7   0.2 SSW | 212 3.5   0.8 6.7   2.0 0   0 0.00 0.00 73.8   0.3 42.7   1.1 21.8   0.7 0.183   0.011 0.0   0.0
Linden 4/14/21 2200 50.5   2.2 74   10 42.4   1.8 NW | 315 0.8   2.3 1.9   6.8 - 0.00 0.00 73.2   1.5 41.8   1.4 14.1   3.2 - 1.4   3.7
DeVries Road-North 4/14/21 2200 55.3   1.1 54   8 39.1   2.5 WSW | 255 2.1   0.1 5.0   0.8 0   0 0.00 0.00 73.6   1.1 43.2   1.0 22.4   3.5 0.170   0.018 -
Acampo 4/14/21 2200 55.6   0.5 51   3 37.7   0.8 WSW | 238 1.6   1.1 4.8   2.0 0   0 - 0.00 72.8   1.6 44.8   1.7 16.5   1.3 0.182   0.018 0.0   0.0
Acampo (Woodbridge) 4/14/21 2200 55.9   1.3 54   5 39.4   1.1 WSW | 246 4.3   0.8 8.9   2.4 0   0 0.00 0.00 72.2   1.1 44.5   1.3 18.2   2.1 0.182   0.015 -
Lodi West 4/14/21 2200 55.3   3.8 54   12 39.2   1.7 SW | 217 1.9   0.2 5.5   1.1 0   0 0.00 0.00 73.3   1.5 45.8   0.9 19.5   0.2 0.175   0.011 0.0   0.7
Teresi-Alpine Rd (East Lodi) 4/14/21 2200 56.4   2.6 54   7 40.0   0.6 WSW | 239 1.2   2.5 2.5   4.3 0   0 0.00 0.00 74.2   1.8 44.8   0.2 19.8   1.6 - -
Victor - N (Katusha) 4/14/21 2200 55.9   2.4 49   8 37.1   1.8 W | 279 2.1   0.5 4.4   0.7 - 0.00 0.00 72.0   2.4 42.6   1.0 - - -
Live Oak 4/14/21 2200 55.0   2.5 55   8 39.2   1.1 WSW | 255 2.6   2.2 5.8   1.7 0   0 0.00 0.00 73.9   1.0 44.2   0.9 23.0   5.2 0.179   0.016 -
Sheldon 4/14/21 2200 56.3   1.0 54   5 40.0   1.4 SW | 236 3.7   1.7 6.1   2.7 0   0 0.00 0.00 72.7   2.6 40.7   5.6 14.5   7.0 0.171   0.034 1.4   1.4
Sloughhouse 4/14/21 2200 51.6   3.6 68   9 41.6   0.2 N | 0 0.0   2.0 0.0   6.1 0   0 0.00 0.00 74.4   1.9 36.0   7.4 13.5   4.0 0.160   0.027 -
Utter - Wilson 4/14/21 2200 55.4   1.7 63   6 42.9   0.8 SSW | 203 5.9   3.8 10.3   5.2 0   0 0.00 0.00 78.0   0.8 41.6   6.4 19.6   4.3 0.186   0.019 -
Clarksburg 4/14/21 2200 56.9   2.8 54   14 40.4   3.4 SW | 220 8.6   5.5 12.1   9.8 0   0 0.00 0.00 75.2   0.3 41.9   7.6 20.5   2.7 0.195   0.025 -
Clarksburg-3A2 4/14/21 2200 56.0   3.1 59   13 41.8   2.4 SSW | 208 8.9   4.9 13.8   6.7 0   0 0.00 0.00 75.0   1.6 43.0   5.9 22.0   1.4 0.178   0.020 -
Gorter - Wilson 4/14/21 2200 56.4   3.0 57   14 41.3   2.7 SW | 231 6.8   5.3 12.8   5.6 0   0 0.00 0.00 76.0   0.9 41.3   7.6 20.9   1.4 0.164   0.026 -
Hood 4/14/21 2200 56.7   3.1 58   13 41.9   2.2 WSW | 246 5.5   7.0 9.1   11.8 0   0 0.00 0.00 75.1   1.0 40.9   8.4 20.1   2.3 0.172   0.020 -
Courtland-C3 4/14/21 2200 55.8   2.3 54   11 39.3   2.5 SW | 228 6.2   4.7 9.7   4.9 - 0.00 0.00 74.7   0.5 43.5   5.0 22.7   0.8 - -
Pacific Fruit 4/14/21 2200 56.2   2.2 57   10 41.3   2.0 WSW | 244 6.4   2.6 10.5   2.7 0   0 0.00 0.00 75.1   1.4 43.0   5.9 23.9   2.0 0.181   0.013 -
Ryer Island South 4/14/21 2200 57.6   3.5 47   14 37.7   3.6 SW | 225 4.2   2.5 9.3   5.2 0   0 0.00 0.00 74.5   1.1 42.5   9.4 22.2   1.3 0.189   0.011 0.0   0.0
Farmington (Mobley100) 4/14/21 2200 52.1   0.8 72   11 43.4   3.7 N | 359 0.0   1.1 0.7   3.5 - - - 73.2   1.9 42.9   1.7 7.5   1.8 - -
Collegeville 4/14/21 2200 50.3   2.3 79   16 44.1   3.7 NNW | 343 0.0   3.4 0.4   8.0 0   0 0.00 0.00 73.4   1.3 43.5   2.5 10.9   2.0 0.160   0.013 -
Oakdale North (28 Mile Rd) 4/14/21 2200 53.6   1.9 69   6 43.9   4.1 NNE | 13 0.0   0.0 1.0   0.4 - - - 70.2   2.5 42.6   3.7 7.5   1.4 - -
Escalon 4/14/21 2200 56.9   6.4 58   14 42.5   0.6 NW | 315 1.6   0.1 4.6   1.1 - 0.00 0.00 74.3   1.4 41.4   0.0 12.3   3.1 - 0.4   2.1
Claussen 4/14/21 2200 56.5   4.2 57   9 41.6   0.2 WSW | 256 6.2   0.9 9.8   5.4 0   0 0.00 0.00 73.7   0.3 45.6   4.6 15.8   6.8 0.198   0.008 -
Max     57.7 79 45.0 - 8.9 13.8 1 0.00 0.00 78.0 45.8 23.9 0.198 1.4
Avg     55.2 58 40.5 - 3.1 5.8 0 0.00 - - - - - -
Min     50.3 46 36.6 - 0.0 0.0 0 0.00 0.00 70.2 36.0 7.5 0.093 0.0

Latest Observations

Map

Hourly Data